Time;durP1;ratioP1;P1;durP2;ratioP2;P2;SDS_P1;SDS_P2;PMS_P1;PMS_P2;Temp;Humidity;BMP_temperature;BMP_pressure;BME280_temperature;BME280_humidity;BME280_pressure;Samples;Min_cycle;Max_cycle;Signal;HPM_P1;HPM_P2
2023/11/23 00:01:34;;;;;;;56.17;2.90;;;;;;;;;;5053934;28;20274;-73
2023/11/23 00:04:01;;;;;;;56.60;3.00;;;;;;;;;;5054011;28;20255;-74
2023/11/23 00:06:30;;;;;;;56.50;3.25;;;;;;;;;;5053759;28;20202;-73
2023/11/23 00:08:57;;;;;;;56.58;4.10;;;;;;;;;;5053317;28;20290;-73
2023/11/23 00:11:24;;;;;;;56.30;2.92;;;;;;;;;;5053607;28;20223;-73
2023/11/23 00:13:52;;;;;;;56.28;3.05;;;;;;;;;;5053545;28;20211;-74
2023/11/23 00:16:19;;;;;;;57.08;4.85;;;;;;;;;;5053656;28;20202;-73
2023/11/23 00:18:46;;;;;;;56.10;3.40;;;;;;;;;;5053474;28;20230;-74
2023/11/23 00:21:12;;;;;;;56.20;3.05;;;;;;;;;;5053707;28;20227;-72
2023/11/23 00:23:41;;;;;;;56.47;3.47;;;;;;;;;;5053235;28;20199;-73
2023/11/23 00:26:08;;;;;;;58.20;3.47;;;;;;;;;;5053490;28;20245;-73
2023/11/23 00:28:35;;;;;;;56.17;2.92;;;;;;;;;;5053322;28;20210;-73
2023/11/23 00:31:02;;;;;;;56.45;3.08;;;;;;;;;;5053485;28;20256;-73
2023/11/23 00:33:29;;;;;;;56.40;3.65;;;;;;;;;;5053275;28;20206;-73
2023/11/23 00:35:57;;;;;;;56.08;2.80;;;;;;;;;;5053237;28;20206;-73
2023/11/23 00:38:24;;;;;;;56.20;2.90;;;;;;;;;;5053334;28;20202;-73
2023/11/23 00:40:52;;;;;;;56.20;2.60;;;;;;;;;;5053216;28;20324;-73
2023/11/23 00:43:19;;;;;;;56.30;2.78;;;;;;;;;;5052900;28;20211;-72
2023/11/23 00:45:46;;;;;;;56.90;3.55;;;;;;;;;;5052859;28;20215;-73
2023/11/23 00:48:13;;;;;;;56.28;2.90;;;;;;;;;;5053047;28;20671;-72
2023/11/23 00:50:40;;;;;;;57.03;3.75;;;;;;;;;;5052635;28;20208;-73
2023/11/23 00:53:07;;;;;;;56.70;3.30;;;;;;;;;;5052592;28;20206;-73
2023/11/23 00:55:36;;;;;;;56.28;3.10;;;;;;;;;;5053014;28;20210;-73
2023/11/23 00:58:05;;;;;;;56.08;2.70;;;;;;;;;;5052772;28;20203;-72
2023/11/23 01:00:32;;;;;;;61.50;5.30;;;;;;;;;;5053109;28;20203;-73
2023/11/23 01:02:59;;;;;;;56.28;2.90;;;;;;;;;;5044498;28;20219;-73
2023/11/23 01:05:26;;;;;;;56.42;3.00;;;;;;;;;;5052737;28;20216;-73
2023/11/23 01:07:54;;;;;;;56.40;3.00;;;;;;;;;;5053053;28;20387;-72
2023/11/23 01:10:21;;;;;;;56.88;3.40;;;;;;;;;;5052697;28;20225;-73
2023/11/23 01:12:48;;;;;;;57.17;3.63;;;;;;;;;;5052552;28;20716;-73
2023/11/23 01:15:17;;;;;;;56.03;2.80;;;;;;;;;;5052654;28;20241;-72
2023/11/23 01:17:44;;;;;;;56.40;3.17;;;;;;;;;;5052355;28;20630;-73
2023/11/23 01:20:12;;;;;;;57.85;5.38;;;;;;;;;;5052694;28;20237;-73
2023/11/23 01:22:39;;;;;;;56.08;2.80;;;;;;;;;;5052590;28;20227;-73
2023/11/23 01:25:08;;;;;;;56.28;2.90;;;;;;;;;;5052671;28;20258;-73
2023/11/23 01:27:36;;;;;;;56.28;3.55;;;;;;;;;;5052241;28;20580;-73
2023/11/23 01:30:03;;;;;;;56.17;2.80;;;;;;;;;;5052379;28;20234;-73
2023/11/23 01:32:31;;;;;;;56.53;3.58;;;;;;;;;;5052115;28;20230;-72
2023/11/23 01:34:58;;;;;;;56.60;3.10;;;;;;;;;;5052205;28;20209;-72
2023/11/23 01:37:25;;;;;;;59.83;3.78;;;;;;;;;;5052611;28;20556;-72
2023/11/23 01:39:53;;;;;;;56.20;2.90;;;;;;;;;;5052329;28;20214;-72
2023/11/23 01:42:20;;;;;;;56.17;2.70;;;;;;;;;;5052497;28;20276;-72
2023/11/23 01:44:47;;;;;;;56.10;2.70;;;;;;;;;;5052146;28;20263;-73
2023/11/23 01:47:14;;;;;;;57.50;3.15;;;;;;;;;;5052193;28;20223;-73
2023/11/23 01:49:43;;;;;;;56.40;3.03;;;;;;;;;;5052430;28;20607;-73
2023/11/23 01:52:11;;;;;;;56.47;3.30;;;;;;;;;;5052252;28;20227;-71
2023/11/23 01:54:38;;;;;;;56.17;2.90;;;;;;;;;;5052307;28;20214;-73
2023/11/23 01:57:07;;;;;;;56.05;2.85;;;;;;;;;;5052317;28;20289;-73
2023/11/23 01:59:35;;;;;;;56.30;2.90;;;;;;;;;;5051961;28;20634;-73
2023/11/23 02:02:03;;;;;;;56.50;3.40;;;;;;;;;;5052703;28;20244;-73
2023/11/23 02:04:30;;;;;;;56.30;3.25;;;;;;;;;;5051840;28;20217;-73
2023/11/23 02:06:58;;;;;;;56.17;3.15;;;;;;;;;;5051965;28;20603;-73
2023/11/23 02:09:27;;;;;;;59.58;4.68;;;;;;;;;;5052376;28;20218;-73
2023/11/23 02:11:54;;;;;;;56.58;3.97;;;;;;;;;;5052397;28;20226;-73
2023/11/23 02:14:21;;;;;;;56.15;3.00;;;;;;;;;;5051823;28;20206;-70
2023/11/23 02:16:48;;;;;;;57.40;3.22;;;;;;;;;;5051909;28;20206;-73
2023/11/23 02:19:15;;;;;;;56.60;3.50;;;;;;;;;;5051979;28;20750;-72
2023/11/23 02:21:44;;;;;;;56.30;2.75;;;;;;;;;;5052559;28;20233;-73
2023/11/23 02:24:13;;;;;;;56.40;3.17;;;;;;;;;;5052191;28;20210;-73
2023/11/23 02:26:40;;;;;;;56.92;3.97;;;;;;;;;;5051839;28;20235;-73
2023/11/23 02:29:07;;;;;;;57.72;4.75;;;;;;;;;;5052114;28;20203;-73
2023/11/23 02:31:34;;;;;;;56.50;3.10;;;;;;;;;;5051370;28;20231;-73
2023/11/23 02:34:01;;;;;;;56.88;3.10;;;;;;;;;;5051240;28;20783;-74
2023/11/23 02:36:28;;;;;;;56.30;3.10;;;;;;;;;;5051618;28;20207;-73
2023/11/23 02:38:55;;;;;;;58.05;4.35;;;;;;;;;;5050980;28;20203;-73
2023/11/23 02:41:24;;;;;;;57.92;3.63;;;;;;;;;;5051439;28;20234;-73
2023/11/23 02:43:51;;;;;;;56.50;3.40;;;;;;;;;;5051301;28;20279;-72
2023/11/23 02:46:18;;;;;;;56.47;2.90;;;;;;;;;;5051781;28;20215;-73
2023/11/23 02:48:45;;;;;;;56.50;3.30;;;;;;;;;;5050662;28;20216;-72
2023/11/23 02:51:14;;;;;;;56.15;2.70;;;;;;;;;;5051720;28;20233;-73
2023/11/23 02:53:43;;;;;;;56.20;2.60;;;;;;;;;;5051520;28;20574;-73
2023/11/23 02:56:11;;;;;;;56.38;3.10;;;;;;;;;;5051588;28;20211;-73
2023/11/23 02:58:40;;;;;;;56.55;3.38;;;;;;;;;;5051002;28;20589;-72
2023/11/23 03:01:07;;;;;;;56.38;3.30;;;;;;;;;;5051214;28;20223;-73
2023/11/23 03:03:34;;;;;;;56.30;2.90;;;;;;;;;;5051472;28;20530;-72
2023/11/23 03:06:01;;;;;;;56.22;3.13;;;;;;;;;;5050995;28;20198;-73
2023/11/23 03:08:28;;;;;;;56.38;2.83;;;;;;;;;;5050991;28;20241;-73
2023/11/23 03:10:55;;;;;;;56.60;3.10;;;;;;;;;;5050903;28;20210;-73
2023/11/23 03:13:24;;;;;;;57.17;3.88;;;;;;;;;;5051016;28;20209;-72
2023/11/23 03:15:53;;;;;;;56.58;3.67;;;;;;;;;;5050871;28;20207;-73
2023/11/23 03:18:20;;;;;;;55.92;2.70;;;;;;;;;;5055212;28;20682;-72
2023/11/23 03:20:47;;;;;;;56.22;3.60;;;;;;;;;;5055055;28;20638;-73
2023/11/23 03:23:14;;;;;;;56.33;2.97;;;;;;;;;;5055002;28;20582;-72
2023/11/23 03:25:41;;;;;;;56.17;2.42;;;;;;;;;;5055103;28;20207;-72
2023/11/23 03:28:08;;;;;;;56.50;3.05;;;;;;;;;;5055004;28;20535;-73
2023/11/23 03:30:35;;;;;;;56.30;2.70;;;;;;;;;;5054779;28;20207;-73
2023/11/23 03:33:04;;;;;;;56.40;3.20;;;;;;;;;;5054744;28;20223;-73
2023/11/23 03:35:31;;;;;;;56.58;3.67;;;;;;;;;;5055006;28;20256;-73
2023/11/23 03:37:58;;;;;;;56.28;2.60;;;;;;;;;;5055056;28;20203;-73
2023/11/23 03:40:25;;;;;;;57.25;3.28;;;;;;;;;;5054670;28;20688;-73
2023/11/23 03:42:52;;;;;;;56.78;3.40;;;;;;;;;;5054366;28;20736;-73
2023/11/23 03:45:21;;;;;;;56.40;2.90;;;;;;;;;;5054551;28;20209;-73
2023/11/23 03:47:48;;;;;;;56.40;3.10;;;;;;;;;;5054938;28;20647;-74
2023/11/23 03:50:16;;;;;;;56.35;2.92;;;;;;;;;;5054937;28;20214;-73
2023/11/23 03:52:43;;;;;;;56.30;2.80;;;;;;;;;;5054802;28;20738;-73
2023/11/23 03:55:10;;;;;;;56.33;3.03;;;;;;;;;;5054845;28;20206;-73
2023/11/23 03:57:38;;;;;;;56.30;3.00;;;;;;;;;;5054333;28;20213;-73
2023/11/23 04:00:06;;;;;;;56.17;2.70;;;;;;;;;;5054283;28;20261;-72
2023/11/23 04:02:33;;;;;;;56.28;2.80;;;;;;;;;;5054619;28;20223;-73
2023/11/23 04:05:00;;;;;;;56.20;3.38;;;;;;;;;;5054302;28;20202;-74
2023/11/23 04:07:29;;;;;;;56.28;2.80;;;;;;;;;;5054539;28;20223;-73
2023/11/23 04:09:56;;;;;;;56.30;3.15;;;;;;;;;;5054488;28;20218;-74
2023/11/23 04:12:23;;;;;;;56.38;2.88;;;;;;;;;;5054635;28;20287;-72
2023/11/23 04:14:50;;;;;;;56.30;2.90;;;;;;;;;;5054414;28;20217;-74
2023/11/23 04:17:17;;;;;;;56.25;3.10;;;;;;;;;;5054335;28;20289;-73
2023/11/23 04:19:44;;;;;;;56.25;3.00;;;;;;;;;;5054438;28;20210;-73
2023/11/23 04:22:12;;;;;;;56.38;2.90;;;;;;;;;;5054866;28;20227;-73
2023/11/23 04:24:41;;;;;;;56.47;3.22;;;;;;;;;;5055137;28;20682;-74
2023/11/23 04:27:09;;;;;;;56.25;2.83;;;;;;;;;;5055335;28;20207;-74
2023/11/23 04:29:36;;;;;;;56.15;3.00;;;;;;;;;;5054791;28;20293;-74
2023/11/23 04:32:04;;;;;;;56.55;3.65;;;;;;;;;;5054412;28;20226;-72
2023/11/23 04:34:31;;;;;;;58.83;4.78;;;;;;;;;;5054729;28;20225;-73
2023/11/23 04:36:58;;;;;;;56.25;2.95;;;;;;;;;;5054205;28;20211;-73
2023/11/23 04:39:25;;;;;;;56.28;2.80;;;;;;;;;;5054313;28;20206;-73
2023/11/23 04:41:53;;;;;;;56.50;3.35;;;;;;;;;;5054408;28;20254;-73
2023/11/23 04:44:20;;;;;;;56.08;2.58;;;;;;;;;;5054415;28;20218;-73
2023/11/23 04:46:48;;;;;;;56.38;3.10;;;;;;;;;;5054588;28;20217;-74
2023/11/23 04:49:16;;;;;;;56.33;3.00;;;;;;;;;;5054076;28;20222;-73
2023/11/23 04:51:43;;;;;;;56.28;2.90;;;;;;;;;;5054414;28;20710;-74
2023/11/23 04:54:10;;;;;;;56.67;3.70;;;;;;;;;;5054551;28;20210;-72
2023/11/23 04:56:37;;;;;;;57.17;3.80;;;;;;;;;;5054352;28;20209;-74
2023/11/23 04:59:06;;;;;;;56.08;2.60;;;;;;;;;;5054181;28;20198;-73
2023/11/23 05:01:33;;;;;;;56.40;3.20;;;;;;;;;;5054262;28;20234;-74
2023/11/23 05:04:00;;;;;;;56.17;2.70;;;;;;;;;;5054190;28;20483;-74
2023/11/23 05:06:27;;;;;;;58.25;4.05;;;;;;;;;;5054307;28;20644;-74
2023/11/23 05:08:54;;;;;;;57.40;3.92;;;;;;;;;;5053877;28;20230;-73
2023/11/23 05:11:21;;;;;;;56.60;3.53;;;;;;;;;;5054091;28;20598;-74
2023/11/23 05:13:48;;;;;;;56.60;3.85;;;;;;;;;;5053855;28;20233;-72
2023/11/23 05:16:17;;;;;;;56.55;3.20;;;;;;;;;;5054354;28;20209;-73
2023/11/23 05:18:44;;;;;;;55.97;2.60;;;;;;;;;;5053635;28;20209;-74
2023/11/23 05:21:11;;;;;;;56.17;2.70;;;;;;;;;;5053692;28;20748;-74
2023/11/23 05:23:38;;;;;;;56.28;2.92;;;;;;;;;;5053755;28;20210;-74
2023/11/23 05:26:05;;;;;;;56.33;2.72;;;;;;;;;;5053939;28;20213;-73
2023/11/23 05:28:32;;;;;;;56.35;3.00;;;;;;;;;;5053462;28;20232;-73
2023/11/23 05:30:59;;;;;;;56.83;3.53;;;;;;;;;;5053180;28;20214;-73
2023/11/23 05:33:28;;;;;;;56.50;3.00;;;;;;;;;;5053156;28;20341;-74
2023/11/23 05:35:55;;;;;;;58.05;4.45;;;;;;;;;;5053022;28;20248;-73
2023/11/23 05:38:22;;;;;;;56.45;3.53;;;;;;;;;;5053413;28;20209;-73
2023/11/23 05:40:49;;;;;;;56.28;3.15;;;;;;;;;;5052981;28;20209;-73
2023/11/23 05:43:18;;;;;;;56.47;3.38;;;;;;;;;;5053288;28;20211;-73
2023/11/23 05:45:46;;;;;;;56.30;3.33;;;;;;;;;;5052802;28;20220;-73
2023/11/23 05:48:13;;;;;;;56.22;3.00;;;;;;;;;;5052936;28;20272;-73
2023/11/23 05:50:42;;;;;;;56.28;3.10;;;;;;;;;;5052507;28;20230;-74
2023/11/23 05:53:09;;;;;;;56.60;3.70;;;;;;;;;;5052854;28;20392;-74
2023/11/23 05:55:36;;;;;;;56.67;3.70;;;;;;;;;;5052676;28;20198;-73
2023/11/23 05:58:03;;;;;;;57.55;4.43;;;;;;;;;;5053002;28;20200;-74
2023/11/23 06:00:31;;;;;;;56.20;3.35;;;;;;;;;;5052749;28;20198;-74
2023/11/23 06:02:58;;;;;;;56.40;2.90;;;;;;;;;;5052863;28;20233;-73
2023/11/23 06:05:25;;;;;;;56.10;2.80;;;;;;;;;;5053233;28;20213;-74
2023/11/23 06:07:53;;;;;;;63.33;5.03;;;;;;;;;;5052585;28;20730;-73
2023/11/23 06:10:20;;;;;;;56.17;3.33;;;;;;;;;;5052799;28;20209;-74
2023/11/23 06:12:48;;;;;;;56.97;3.40;;;;;;;;;;5052671;28;20238;-73
2023/11/23 06:15:15;;;;;;;56.28;3.00;;;;;;;;;;5053004;28;20305;-73
2023/11/23 06:17:42;;;;;;;56.28;3.17;;;;;;;;;;5053068;28;20206;-73
2023/11/23 06:20:12;;;;;;;56.22;3.00;;;;;;;;;;5052448;28;20211;-74
2023/11/23 06:22:39;;;;;;;57.20;4.50;;;;;;;;;;5052940;28;20227;-74
2023/11/23 06:25:08;;;;;;;56.20;2.90;;;;;;;;;;5052729;28;20662;-72
2023/11/23 06:27:35;;;;;;;60.20;4.55;;;;;;;;;;5052806;28;20615;-73
2023/11/23 06:30:02;;;;;;;56.80;4.00;;;;;;;;;;5052431;28;20583;-73
2023/11/23 06:32:29;;;;;;;56.40;3.05;;;;;;;;;;5052600;28;20227;-73
2023/11/23 06:34:56;;;;;;;56.30;2.90;;;;;;;;;;5052599;28;20215;-72
2023/11/23 06:37:23;;;;;;;56.55;3.15;;;;;;;;;;5052496;28;20199;-73
2023/11/23 06:39:52;;;;;;;56.90;3.65;;;;;;;;;;5052092;28;20206;-73
2023/11/23 06:42:21;;;;;;;56.80;4.57;;;;;;;;;;5052669;28;20238;-76
2023/11/23 06:44:49;;;;;;;56.28;2.78;;;;;;;;;;5052491;28;20206;-72
2023/11/23 06:47:17;;;;;;;56.70;3.63;;;;;;;;;;5044708;28;20210;-72
2023/11/23 06:49:44;;;;;;;56.20;3.17;;;;;;;;;;5052088;28;20222;-73
2023/11/23 06:52:11;;;;;;;58.58;3.45;;;;;;;;;;5054745;28;20313;-73
2023/11/23 06:54:38;;;;;;;56.30;3.22;;;;;;;;;;5056068;28;20210;-73
2023/11/23 06:57:06;;;;;;;56.08;3.00;;;;;;;;;;5055429;28;20210;-72
2023/11/23 06:59:35;;;;;;;56.35;2.97;;;;;;;;;;5055959;28;20256;-72
2023/11/23 07:02:03;;;;;;;56.10;3.00;;;;;;;;;;5056097;28;20221;-73
2023/11/23 07:04:31;;;;;;;56.20;3.30;;;;;;;;;;5055984;28;20198;-73
2023/11/23 07:06:58;;;;;;;56.25;3.00;;;;;;;;;;5055448;28;20210;-73
2023/11/23 07:09:25;;;;;;;56.30;2.90;;;;;;;;;;5055482;28;20231;-72
2023/11/23 07:11:54;;;;;;;56.38;3.20;;;;;;;;;;5055631;28;20231;-72
2023/11/23 07:14:22;;;;;;;56.17;2.70;;;;;;;;;;5055172;28;20209;-73
2023/11/23 07:16:51;;;;;;;56.17;3.00;;;;;;;;;;5054711;28;20204;-73
2023/11/23 07:19:19;;;;;;;57.08;4.40;;;;;;;;;;5054837;28;20574;-73
2023/11/23 07:21:46;;;;;;;56.30;3.00;;;;;;;;;;5054272;28;20265;-73
2023/11/23 07:24:13;;;;;;;56.17;3.13;;;;;;;;;;5054380;28;20690;-73
2023/11/23 07:26:40;;;;;;;56.88;3.70;;;;;;;;;;5054790;28;20682;-73
2023/11/23 07:29:08;;;;;;;56.30;3.10;;;;;;;;;;5054141;28;20230;-73
2023/11/23 07:31:36;;;;;;;56.30;3.30;;;;;;;;;;5054608;28;20249;-72
2023/11/23 07:34:05;;;;;;;56.40;2.95;;;;;;;;;;5054305;28;20214;-72
2023/11/23 07:36:32;;;;;;;56.20;2.60;;;;;;;;;;5054471;28;20548;-73
2023/11/23 07:38:59;;;;;;;56.00;2.90;;;;;;;;;;5054017;28;20290;-72
2023/11/23 07:41:26;;;;;;;56.72;3.22;;;;;;;;;;5053996;28;20274;-72
2023/11/23 07:43:57;;;;;;;56.53;3.35;;;;;;;;;;5054044;28;20286;-73
2023/11/23 07:46:24;;;;;;;56.20;2.90;;;;;;;;;;5054244;28;20203;-73
2023/11/23 07:48:53;;;;;;;56.75;3.53;;;;;;;;;;5053838;28;20695;-72
2023/11/23 07:51:21;;;;;;;56.35;3.55;;;;;;;;;;5053662;28;20224;-72
2023/11/23 07:53:48;;;;;;;56.40;3.20;;;;;;;;;;5054236;28;20210;-73
2023/11/23 07:56:16;;;;;;;56.90;4.07;;;;;;;;;;5053889;28;20210;-72
2023/11/23 07:58:45;;;;;;;56.40;3.30;;;;;;;;;;5054070;28;20207;-72
2023/11/23 08:01:12;;;;;;;56.40;2.97;;;;;;;;;;5053809;28;20321;-72
2023/11/23 08:03:39;;;;;;;55.85;2.80;;;;;;;;;;5052848;28;20202;-73
2023/11/23 08:06:06;;;;;;;56.60;3.47;;;;;;;;;;5053758;28;20229;-72
2023/11/23 08:08:34;;;;;;;56.13;2.78;;;;;;;;;;5053517;28;20232;-72
2023/11/23 08:11:02;;;;;;;56.10;2.58;;;;;;;;;;5053628;28;20798;-73
2023/11/23 08:13:29;;;;;;;56.35;3.38;;;;;;;;;;5053391;28;20207;-73
2023/11/23 08:16:00;;;;;;;56.20;3.00;;;;;;;;;;5054078;28;20202;-73
2023/11/23 08:18:27;;;;;;;55.85;2.40;;;;;;;;;;5054076;28;20203;-73
2023/11/23 08:20:54;;;;;;;55.95;2.58;;;;;;;;;;5053706;28;20216;-72
2023/11/23 08:23:21;;;;;;;56.15;2.85;;;;;;;;;;5053730;28;20202;-74
2023/11/23 08:25:49;;;;;;;56.50;3.70;;;;;;;;;;5053956;28;20214;-73
2023/11/23 08:28:17;;;;;;;56.00;2.80;;;;;;;;;;5053152;28;20207;-74
2023/11/23 08:30:47;;;;;;;55.80;2.60;;;;;;;;;;5053713;28;20484;-74
2023/11/23 08:33:14;;;;;;;56.08;3.05;;;;;;;;;;5053091;28;20210;-72
2023/11/23 08:35:41;;;;;;;56.45;3.05;;;;;;;;;;5053470;28;20203;-71
2023/11/23 08:38:08;;;;;;;56.40;3.50;;;;;;;;;;5053013;28;20209;-72
2023/11/23 08:40:35;;;;;;;55.95;2.92;;;;;;;;;;5053361;28;20210;-71
2023/11/23 08:43:05;;;;;;;56.00;2.90;;;;;;;;;;5052505;28;20219;-71
2023/11/23 08:45:33;;;;;;;56.40;3.20;;;;;;;;;;5052908;28;20207;-72
2023/11/23 08:48:00;;;;;;;57.72;3.70;;;;;;;;;;5052835;28;20207;-72
2023/11/23 08:50:28;;;;;;;55.80;2.53;;;;;;;;;;5052868;28;20227;-71
2023/11/23 08:52:57;;;;;;;55.90;2.50;;;;;;;;;;5052543;28;20469;-71
2023/11/23 08:55:24;;;;;;;55.97;2.90;;;;;;;;;;5052438;28;20453;-72
2023/11/23 08:57:52;;;;;;;56.93;2.80;;;;;;;;;;5052491;28;20457;-71
2023/11/23 09:00:23;;;;;;;56.00;2.80;;;;;;;;;;5052339;28;20541;-71
2023/11/23 09:02:53;;;;;;;55.87;2.57;;;;;;;;;;5052377;28;20711;-71
2023/11/23 09:05:20;;;;;;;55.90;2.50;;;;;;;;;;5052146;28;20453;-71
2023/11/23 09:07:48;;;;;;;57.13;3.13;;;;;;;;;;5052378;28;20445;-72
2023/11/23 09:10:16;;;;;;;56.10;2.67;;;;;;;;;;5051640;28;20498;-72
2023/11/23 09:12:43;;;;;;;56.47;2.80;;;;;;;;;;5052502;28;20501;-72
2023/11/23 09:15:12;;;;;;;55.87;2.37;;;;;;;;;;5052020;28;20458;-72
2023/11/23 09:17:41;;;;;;;55.70;2.40;;;;;;;;;;5052348;28;20549;-72
2023/11/23 09:20:09;;;;;;;56.13;3.00;;;;;;;;;;5051944;28;20451;-72
2023/11/23 09:22:36;;;;;;;55.77;2.50;;;;;;;;;;5052478;28;20474;-73
2023/11/23 09:25:03;;;;;;;57.13;2.63;;;;;;;;;;5052021;28;20453;-72
2023/11/23 09:27:31;;;;;;;55.73;2.40;;;;;;;;;;5051924;28;20961;-72
2023/11/23 09:29:58;;;;;;;55.90;2.50;;;;;;;;;;5051951;28;20508;-72
2023/11/23 09:32:25;;;;;;;55.87;2.73;;;;;;;;;;5044372;28;20512;-72
2023/11/23 09:34:54;;;;;;;55.87;2.53;;;;;;;;;;5052282;28;20976;-73
2023/11/23 09:37:22;;;;;;;56.00;2.60;;;;;;;;;;5052136;28;20445;-73
2023/11/23 09:39:50;;;;;;;55.87;2.30;;;;;;;;;;5052301;28;20462;-72
2023/11/23 09:42:18;;;;;;;55.80;2.50;;;;;;;;;;5052114;28;20880;-72
2023/11/23 09:44:45;;;;;;;55.87;2.57;;;;;;;;;;5051598;28;20871;-72
2023/11/23 09:47:14;;;;;;;55.63;2.40;;;;;;;;;;5051474;28;20449;-71
2023/11/23 09:49:42;;;;;;;56.87;3.47;;;;;;;;;;5051186;28;20484;-73
2023/11/23 09:52:11;;;;;;;55.80;2.40;;;;;;;;;;5051283;28;20469;-73
2023/11/23 09:54:38;;;;;;;55.77;2.00;;;;;;;;;;5051422;28;20548;-73
2023/11/23 09:57:05;;;;;;;55.90;2.40;;;;;;;;;;5051413;28;20456;-73
2023/11/23 09:59:32;;;;;;;55.80;2.10;;;;;;;;;;5051500;28;20445;-73
2023/11/23 10:02:04;;;;;;;55.80;2.00;;;;;;;;;;5051139;28;20480;-73
2023/11/23 10:04:32;;;;;;;56.20;2.50;;;;;;;;;;5051405;28;20442;-73
2023/11/23 10:06:59;;;;;;;57.20;3.03;;;;;;;;;;5051544;28;20446;-73
2023/11/23 10:09:28;;;;;;;55.70;2.00;;;;;;;;;;5051145;28;20490;-72
2023/11/23 10:11:56;;;;;;;55.57;2.27;;;;;;;;;;5051500;28;20466;-73
2023/11/23 10:14:24;;;;;;;55.80;2.27;;;;;;;;;;5050998;28;20437;-73
2023/11/23 10:16:51;;;;;;;55.80;2.10;;;;;;;;;;5051105;28;20486;-73
2023/11/23 10:19:21;;;;;;;55.70;2.20;;;;;;;;;;5050940;28;20453;-73
2023/11/23 10:21:48;;;;;;;55.30;1.87;;;;;;;;;;5050829;28;20520;-73
2023/11/23 10:24:16;;;;;;;55.90;2.03;;;;;;;;;;5051307;28;20446;-73
2023/11/23 10:26:44;;;;;;;55.87;2.20;;;;;;;;;;5050375;28;20482;-73
2023/11/23 10:29:12;;;;;;;55.70;2.07;;;;;;;;;;5050616;28;20489;-73
2023/11/23 10:31:39;;;;;;;55.87;2.30;;;;;;;;;;5050998;28;20511;-74
2023/11/23 10:34:08;;;;;;;55.70;1.87;;;;;;;;;;5050947;28;20466;-73
2023/11/23 10:36:35;;;;;;;55.33;2.40;;;;;;;;;;5050911;28;20457;-73
2023/11/23 10:39:04;;;;;;;55.57;2.30;;;;;;;;;;5051109;28;20460;-73
2023/11/23 10:41:31;;;;;;;55.70;1.97;;;;;;;;;;5050538;28;20471;-73
2023/11/23 10:44:03;;;;;;;55.60;2.10;;;;;;;;;;5050782;28;20474;-73
2023/11/23 10:46:30;;;;;;;56.00;2.77;;;;;;;;;;5051135;28;20454;-74
2023/11/23 10:48:57;;;;;;;55.60;2.00;;;;;;;;;;5050597;28;20840;-73
2023/11/23 10:51:26;;;;;;;56.67;3.30;;;;;;;;;;5050852;28;20880;-73
2023/11/23 10:53:53;;;;;;;55.77;2.10;;;;;;;;;;5050790;28;20561;-72
2023/11/23 10:56:21;;;;;;;56.00;2.00;;;;;;;;;;5050522;28;20477;-74
2023/11/23 10:58:50;;;;;;;55.47;2.20;;;;;;;;;;5050754;28;20461;-74
2023/11/23 11:01:21;;;;;;;56.20;2.03;;;;;;;;;;5050653;28;20849;-73
2023/11/23 11:03:49;;;;;;;55.87;1.93;;;;;;;;;;5050734;28;20474;-74
2023/11/23 11:06:18;;;;;;;56.20;2.43;;;;;;;;;;5050551;28;20507;-73
2023/11/23 11:08:45;;;;;;;56.00;2.20;;;;;;;;;;5050317;28;20504;-71
2023/11/23 11:11:13;;;;;;;55.07;2.60;;;;;;;;;;5050356;28;20580;-73
2023/11/23 11:13:42;;;;;;;56.20;2.20;;;;;;;;;;5050340;28;20455;-73
2023/11/23 11:16:10;;;;;;;59.03;3.10;;;;;;;;;;5050636;28;20459;-74
2023/11/23 11:18:39;;;;;;;55.67;2.40;;;;;;;;;;5051026;28;20543;-73
2023/11/23 11:21:08;;;;;;;55.87;2.33;;;;;;;;;;5050270;28;20960;-73
2023/11/23 11:23:43;;;;;;;56.00;2.30;;;;;;;;;;5050373;28;20457;-73
2023/11/23 11:26:11;;;;;;;56.10;2.50;;;;;;;;;;5050489;28;20511;-73
2023/11/23 11:28:39;;;;;;;55.77;2.00;;;;;;;;;;5050624;28;20457;-74
2023/11/23 11:31:06;;;;;;;56.00;2.50;;;;;;;;;;5050302;28;20500;-73
2023/11/23 11:33:33;;;;;;;55.37;2.17;;;;;;;;;;5050234;28;20527;-74
2023/11/23 11:36:02;;;;;;;55.87;2.30;;;;;;;;;;5050417;28;20451;-74
2023/11/23 11:38:29;;;;;;;55.77;2.40;;;;;;;;;;5053266;28;20450;-74
2023/11/23 11:40:58;;;;;;;55.80;2.83;;;;;;;;;;5054163;28;20478;-74
2023/11/23 11:43:25;;;;;;;55.80;2.20;;;;;;;;;;5054123;28;20453;-74
2023/11/23 11:45:53;;;;;;;55.60;2.10;;;;;;;;;;5053817;28;20461;-74
2023/11/23 11:48:21;;;;;;;55.97;2.17;;;;;;;;;;5054253;28;20453;-74
2023/11/23 11:50:54;;;;;;;55.97;2.07;;;;;;;;;;5053979;28;21021;-74
2023/11/23 11:53:23;;;;;;;55.80;2.00;;;;;;;;;;5053612;28;20451;-74
2023/11/23 11:55:53;;;;;;;57.87;2.50;;;;;;;;;;5053506;28;20454;-73
2023/11/23 11:58:20;;;;;;;55.47;2.00;;;;;;;;;;5053584;28;20462;-74
2023/11/23 12:00:48;;;;;;;55.87;2.20;;;;;;;;;;5053434;28;20441;-74
2023/11/23 12:03:15;;;;;;;55.60;1.93;;;;;;;;;;5053495;28;20462;-74
2023/11/23 12:05:45;;;;;;;55.33;2.17;;;;;;;;;;5053531;28;20447;-73
2023/11/23 12:08:12;;;;;;;55.70;1.80;;;;;;;;;;5053714;28;20864;-74
2023/11/23 12:10:41;;;;;;;55.57;1.70;;;;;;;;;;5053202;28;20577;-73
2023/11/23 12:13:14;;;;;;;55.83;1.87;;;;;;;;;;5053206;28;20469;-72
2023/11/23 12:15:41;;;;;;;57.70;2.30;;;;;;;;;;5053379;28;20458;-73
2023/11/23 12:18:08;;;;;;;55.90;1.97;;;;;;;;;;5053269;28;20446;-73
2023/11/23 12:20:36;;;;;;;55.87;2.10;;;;;;;;;;5053041;28;20455;-74
2023/11/23 12:23:04;;;;;;;55.97;2.20;;;;;;;;;;5053011;28;20470;-73
2023/11/23 12:25:32;;;;;;;56.20;2.60;;;;;;;;;;5053115;28;20794;-74
2023/11/23 12:28:02;;;;;;;55.77;2.10;;;;;;;;;;5052785;28;20967;-73
2023/11/23 12:30:29;;;;;;;55.57;2.30;;;;;;;;;;5052588;28;20497;-74
2023/11/23 12:32:57;;;;;;;55.47;2.00;;;;;;;;;;5052300;28;20502;-74
2023/11/23 12:35:25;;;;;;;55.67;2.53;;;;;;;;;;5052484;28;20451;-74
2023/11/23 12:37:52;;;;;;;55.53;2.40;;;;;;;;;;5052721;28;20451;-74
2023/11/23 12:40:19;;;;;;;55.80;2.00;;;;;;;;;;5052387;28;20923;-74
2023/11/23 12:42:47;;;;;;;55.70;2.30;;;;;;;;;;5052413;28;20472;-74
2023/11/23 12:45:16;;;;;;;55.60;2.30;;;;;;;;;;5052601;28;20552;-74
2023/11/23 12:47:43;;;;;;;55.67;2.20;;;;;;;;;;5051978;28;20451;-74
2023/11/23 12:50:11;;;;;;;55.77;2.10;;;;;;;;;;5051056;28;20540;-74
2023/11/23 12:52:38;;;;;;;55.87;2.50;;;;;;;;;;5051742;28;20470;-74
2023/11/23 12:55:06;;;;;;;55.80;1.80;;;;;;;;;;5051133;28;20492;-72
2023/11/23 12:57:33;;;;;;;55.80;1.93;;;;;;;;;;5051739;28;20438;-73
2023/11/23 13:00:00;;;;;;;55.77;2.00;;;;;;;;;;5052484;28;20450;-73
2023/11/23 13:02:29;;;;;;;55.77;2.30;;;;;;;;;;5052375;28;20465;-73
2023/11/23 13:04:58;;;;;;;55.80;2.27;;;;;;;;;;5051141;28;20820;-74
2023/11/23 13:07:25;;;;;;;55.87;2.23;;;;;;;;;;5051817;28;20995;-74
2023/11/23 13:09:52;;;;;;;56.30;2.20;;;;;;;;;;5052177;28;20490;-73
2023/11/23 13:12:20;;;;;;;56.47;2.93;;;;;;;;;;5052332;28;20474;-73
2023/11/23 13:14:48;;;;;;;55.67;2.20;;;;;;;;;;5052136;28;20453;-73
2023/11/23 13:17:17;;;;;;;55.70;2.20;;;;;;;;;;5052217;28;20880;-74
2023/11/23 13:19:47;;;;;;;55.67;2.17;;;;;;;;;;5051982;28;20462;-74
2023/11/23 13:22:15;;;;;;;55.80;2.00;;;;;;;;;;5051905;28;20477;-72
2023/11/23 13:24:43;;;;;;;56.10;2.10;;;;;;;;;;5051999;28;20513;-73
2023/11/23 13:27:12;;;;;;;55.77;2.10;;;;;;;;;;5052198;28;20878;-70
2023/11/23 13:29:39;;;;;;;55.30;2.30;;;;;;;;;;5052213;28;20477;-73
2023/11/23 13:32:06;;;;;;;55.87;2.27;;;;;;;;;;5051540;28;20490;-72
2023/11/23 13:34:33;;;;;;;55.60;2.17;;;;;;;;;;5051555;28;20530;-72
2023/11/23 13:37:04;;;;;;;55.77;2.00;;;;;;;;;;5051607;28;20485;-72
2023/11/23 13:39:32;;;;;;;55.77;2.10;;;;;;;;;;5051702;28;20478;-72
2023/11/23 13:41:59;;;;;;;55.80;2.13;;;;;;;;;;5052134;28;20489;-72
2023/11/23 13:44:26;;;;;;;55.80;2.00;;;;;;;;;;5051524;28;20826;-72
2023/11/23 13:46:53;;;;;;;55.60;2.10;;;;;;;;;;5051552;28;20451;-72
2023/11/23 13:49:23;;;;;;;56.30;2.17;;;;;;;;;;5051284;28;20486;-71
2023/11/23 13:51:51;;;;;;;57.27;2.57;;;;;;;;;;5051552;28;20482;-72
2023/11/23 13:54:20;;;;;;;56.10;2.20;;;;;;;;;;5051361;28;20450;-73
2023/11/23 13:56:48;;;;;;;57.80;1.97;;;;;;;;;;5051229;28;20463;-72
2023/11/23 13:59:15;;;;;;;55.90;2.00;;;;;;;;;;5051086;28;20538;-72
2023/11/23 14:01:42;;;;;;;55.90;2.00;;;;;;;;;;5050605;28;20983;-72
2023/11/23 14:04:12;;;;;;;55.83;2.07;;;;;;;;;;5051517;28;20451;-73
2023/11/23 14:06:41;;;;;;;56.00;2.10;;;;;;;;;;5051245;28;20451;-73
2023/11/23 14:09:17;;;;;;;55.50;1.70;;;;;;;;;;5051239;28;20526;-73
2023/11/23 14:11:46;;;;;;;55.50;2.10;;;;;;;;;;5050989;28;20496;-73
2023/11/23 14:14:15;;;;;;;55.70;2.00;;;;;;;;;;5050816;28;20550;-73
2023/11/23 14:16:42;;;;;;;55.90;2.10;;;;;;;;;;5051170;28;20485;-73
2023/11/23 14:19:14;;;;;;;55.10;2.03;;;;;;;;;;5051112;28;20450;-72
2023/11/23 14:21:41;;;;;;;55.90;2.33;;;;;;;;;;5051141;28;20474;-72
2023/11/23 14:24:09;;;;;;;55.20;2.10;;;;;;;;;;5051040;28;20506;-72
2023/11/23 14:26:36;;;;;;;55.77;2.10;;;;;;;;;;5050719;28;20450;-72
2023/11/23 14:29:04;;;;;;;55.37;2.20;;;;;;;;;;5051286;28;20911;-72
2023/11/23 14:31:32;;;;;;;55.90;2.30;;;;;;;;;;5050826;28;20494;-72
2023/11/23 14:33:59;;;;;;;55.53;2.10;;;;;;;;;;5050961;28;20505;-72